Time;durP1;ratioP1;P1;durP2;ratioP2;P2;SDS_P1;SDS_P2;PMS_P1;PMS_P2;Temp;Humidity;BMP_temperature;BMP_pressure;BME280_temperature;BME280_humidity;BME280_pressure;Samples;Min_cycle;Max_cycle;Signal;HPM_P1;HPM_P2
2023/05/18 00:01:11;;;;;;;16.15;10.38;;;;;;;;;;5039002;28;20028;-67
2023/05/18 00:03:36;;;;;;;12.27;8.40;;;;;;;;;;5037889;28;20514;-67
2023/05/18 00:06:03;;;;;;;11.85;7.90;;;;;;;;;;5039182;28;20026;-67
2023/05/18 00:08:28;;;;;;;12.23;7.88;;;;;;;;;;5039005;28;20031;-67
2023/05/18 00:10:53;;;;;;;11.07;7.60;;;;;;;;;;5037038;28;20029;-68
2023/05/18 00:13:19;;;;;;;11.53;7.50;;;;;;;;;;5036854;28;20026;-66
2023/05/18 00:15:44;;;;;;;9.68;7.13;;;;;;;;;;5038322;28;20768;-66
2023/05/18 00:18:09;;;;;;;12.43;7.65;;;;;;;;;;5038664;28;20036;-68
2023/05/18 00:20:35;;;;;;;12.63;7.50;;;;;;;;;;5035960;28;20033;-67
2023/05/18 00:23:01;;;;;;;11.85;7.15;;;;;;;;;;5038757;28;20393;-68
2023/05/18 00:25:26;;;;;;;11.63;7.78;;;;;;;;;;5035126;28;20071;-67
2023/05/18 00:27:51;;;;;;;10.67;7.93;;;;;;;;;;5033881;28;20049;-66
2023/05/18 00:30:17;;;;;;;11.67;8.10;;;;;;;;;;5043089;28;21014;-67
2023/05/18 00:32:42;;;;;;;10.65;8.18;;;;;;;;;;5036174;28;20353;-66
2023/05/18 00:35:07;;;;;;;12.30;8.27;;;;;;;;;;5037818;28;20032;-67
2023/05/18 00:37:33;;;;;;;11.85;8.15;;;;;;;;;;5034732;28;20282;-67
2023/05/18 00:39:58;;;;;;;10.52;7.97;;;;;;;;;;5036826;28;20041;-67
2023/05/18 00:42:23;;;;;;;10.93;8.48;;;;;;;;;;5033964;28;20029;-67
2023/05/18 00:44:48;;;;;;;11.37;7.40;;;;;;;;;;5038186;28;20029;-67
2023/05/18 00:47:14;;;;;;;11.37;7.80;;;;;;;;;;5034056;28;20704;-66
2023/05/18 00:49:40;;;;;;;9.93;7.38;;;;;;;;;;5040361;28;20044;-67
2023/05/18 00:52:05;;;;;;;8.48;6.65;;;;;;;;;;5038161;28;20654;-66
2023/05/18 00:54:32;;;;;;;9.07;6.53;;;;;;;;;;5034703;28;20407;-67
2023/05/18 00:57:00;;;;;;;9.38;6.93;;;;;;;;;;5033250;28;20064;-67
2023/05/18 00:59:26;;;;;;;11.13;7.47;;;;;;;;;;5038253;28;20057;-66
2023/05/18 01:01:52;;;;;;;10.05;7.78;;;;;;;;;;5035530;28;20037;-67
2023/05/18 01:04:20;;;;;;;10.80;7.53;;;;;;;;;;5037797;28;20033;-66
2023/05/18 01:06:46;;;;;;;11.50;7.60;;;;;;;;;;5034126;28;20040;-67
2023/05/18 01:09:12;;;;;;;10.63;8.23;;;;;;;13.89;nan;100390.56;5035300;28;20033;-67
2023/05/18 01:11:56;;;;;;;9.57;7.40;;;;;;;;;;5033677;28;20025;-66
2023/05/18 01:14:29;;;;;;;9.40;7.55;;;;;;;;;;5036753;28;20366;-67
2023/05/18 01:17:13;;;;;;;9.98;7.93;;;;;;;;;;5035913;28;20040;-68
2023/05/18 01:19:41;;;;;;;11.07;7.90;;;;;;;;;;5037247;28;20021;-68
2023/05/18 01:22:23;;;;;;;10.98;8.13;;;;;;;;;;5037212;28;20033;-66
2023/05/18 01:24:52;;;;;;;11.45;7.63;;;;;;;;;;5034494;28;20115;-66
2023/05/18 01:27:20;;;;;;;10.43;7.60;;;;;;;;;;5036102;28;20150;-67
2023/05/18 01:29:47;;;;;;;10.05;7.13;;;;;;;;;;5038072;28;20037;-67
2023/05/18 01:32:21;;;;;;;9.73;6.68;;;;;;;;;;5038614;28;20061;-67
2023/05/18 01:34:47;;;;;;;9.02;6.60;;;;;;;;;;5033484;28;20052;-66
2023/05/18 01:37:12;;;;;;;12.45;7.70;;;;;;;;;;5035440;28;20064;-67
2023/05/18 01:39:38;;;;;;;10.30;8.20;;;;;;;;;;5040323;28;20024;-67
2023/05/18 01:42:07;;;;;;;11.63;8.02;;;;;;;;;;5034259;28;20550;-66
2023/05/18 01:44:40;;;;;;;11.88;8.18;;;;;;;;;;5033297;28;20087;-67
2023/05/18 01:47:05;;;;;;;10.25;8.05;;;;;;;;;;5035597;28;20497;-67
2023/05/18 01:49:46;;;;;;;10.93;7.67;;;;;;;13.18;nan;100459.13;5036338;28;20064;-68
2023/05/18 01:52:32;;;;;;;10.05;7.80;;;;;;;;;;5035494;28;20048;-67
2023/05/18 01:55:00;;;;;;;11.20;7.47;;;;;;;;;;5032516;28;20045;-67
2023/05/18 01:57:26;;;;;;;11.60;7.32;;;;;;;;;;5038057;28;20495;-67
2023/05/18 01:59:53;;;;;;;11.75;8.38;;;;;;;;;;5036896;28;20111;-68
2023/05/18 02:02:18;;;;;;;10.85;7.78;;;;;;;;;;5041022;28;20033;-67
2023/05/18 02:04:43;;;;;;;11.07;8.20;;;;;;;;;;5039975;28;20048;-67
2023/05/18 02:07:09;;;;;;;10.97;7.70;;;;;;;;;;5040971;28;20025;-67
2023/05/18 02:09:34;;;;;;;13.37;7.57;;;;;;;;;;5038558;28;20438;-68
2023/05/18 02:11:59;;;;;;;9.37;7.77;;;;;;;;;;5040321;28;20021;-66
2023/05/18 02:14:24;;;;;;;10.80;7.63;;;;;;;;;;5040099;28;20025;-67
2023/05/18 02:16:51;;;;;;;14.88;8.10;;;;;;;;;;5041298;28;20120;-66
2023/05/18 02:19:20;;;;;;;14.02;7.93;;;;;;;;;;5041600;28;20055;-67
2023/05/18 02:21:45;;;;;;;9.60;7.55;;;;;;;;;;5038628;28;20137;-67
2023/05/18 02:24:11;;;;;;;10.60;7.90;;;;;;;;;;5038541;28;20076;-66
2023/05/18 02:26:36;;;;;;;11.00;7.90;;;;;;;;;;5038567;28;20025;-66
2023/05/18 02:29:05;;;;;;;10.25;7.22;;;;;;;12.83;nan;100462.75;5039469;28;20031;-67
2023/05/18 02:31:30;;;;;;;9.70;7.50;;;;;;;;;;5039727;28;20032;-66
2023/05/18 02:33:55;;;;;;;11.32;7.90;;;;;;;;;;5037942;28;20025;-66
2023/05/18 02:36:21;;;;;;;11.23;7.57;;;;;;;;;;5040381;28;20497;-67
2023/05/18 02:38:47;;;;;;;12.18;8.10;;;;;;;;;;5038952;28;20028;-67
2023/05/18 02:41:13;;;;;;;13.70;8.10;;;;;;;;;;5037225;28;20033;-66
2023/05/18 02:43:38;;;;;;;12.85;8.48;;;;;;;;;;5040234;28;20025;-67
2023/05/18 02:46:03;;;;;;;13.70;7.87;;;;;;;;;;5040822;28;20112;-67
2023/05/18 02:48:28;;;;;;;11.02;8.00;;;;;;;;;;5039417;28;20474;-67
2023/05/18 02:50:54;;;;;;;12.73;8.50;;;;;;;;;;5036750;28;20825;-67
2023/05/18 02:53:19;;;;;;;10.98;7.68;;;;;;;;;;5040640;28;20033;-67
2023/05/18 02:55:45;;;;;;;11.20;8.25;;;;;;;;;;5042557;28;20020;-67
2023/05/18 02:58:12;;;;;;;12.02;8.15;;;;;;;;;;5038224;28;20114;-66
2023/05/18 03:00:37;;;;;;;10.73;8.07;;;;;;;;;;5036975;28;20037;-66
2023/05/18 03:03:03;;;;;;;9.98;7.72;;;;;;;;;;5040757;28;20081;-66
2023/05/18 03:05:28;;;;;;;10.57;7.70;;;;;;;;;;5035844;28;20467;-67
2023/05/18 03:07:53;;;;;;;13.93;8.30;;;;;;;;;;5038797;28;20183;-68
2023/05/18 03:10:19;;;;;;;13.90;8.23;;;;;;;;;;5037817;28;20369;-67
2023/05/18 03:12:44;;;;;;;13.23;8.50;;;;;;;;;;5038294;28;20474;-67
2023/05/18 03:15:10;;;;;;;10.57;7.78;;;;;;;;;;5040985;28;20029;-68
2023/05/18 03:17:36;;;;;;;13.25;8.40;;;;;;;;;;5036828;28;20063;-68
2023/05/18 03:20:01;;;;;;;11.93;8.80;;;;;;;;;;5037756;28;20549;-67
2023/05/18 03:22:26;;;;;;;12.73;8.95;;;;;;;;;;5037717;28;20031;-68
2023/05/18 03:24:54;;;;;;;13.90;9.20;;;;;;;;;;5038587;28;20483;-67
2023/05/18 03:27:24;;;;;;;13.60;9.80;;;;;;;;;;5036046;28;20083;-66
2023/05/18 03:29:49;;;;;;;13.07;8.15;;;;;;;;;;5037022;28;20025;-67
2023/05/18 03:32:14;;;;;;;13.40;8.70;;;;;;;;;;5037227;28;20081;-66
2023/05/18 03:34:40;;;;;;;13.20;8.73;;;;;;;;;;5036712;28;20430;-66
2023/05/18 03:37:05;;;;;;;17.13;9.67;;;;;;;;;;5042392;28;20099;-67
2023/05/18 03:39:30;;;;;;;12.18;7.90;;;;;;;;;;5036593;28;20296;-67
2023/05/18 03:41:56;;;;;;;12.00;8.13;;;;;;;;;;5037198;28;20069;-66
2023/05/18 03:44:21;;;;;;;11.50;8.23;;;;;;;;;;5037413;28;20120;-67
2023/05/18 03:46:46;;;;;;;11.63;8.57;;;;;;;;;;5037611;28;20020;-66
2023/05/18 03:49:12;;;;;;;12.80;8.30;;;;;;;;;;5038794;28;20025;-64
2023/05/18 03:51:37;;;;;;;12.25;8.82;;;;;;;;;;5038309;28;20029;-66
2023/05/18 03:54:02;;;;;;;12.77;8.67;;;;;;;;;;5037173;28;20033;-66
2023/05/18 03:56:30;;;;;;;13.00;8.50;;;;;;;;;;5038703;28;20036;-66
2023/05/18 03:58:57;;;;;;;13.02;7.82;;;;;;;;;;5036997;28;20736;-67
2023/05/18 04:01:23;;;;;;;12.55;7.97;;;;;;;;;;5035417;28;20732;-67
2023/05/18 04:03:49;;;;;;;13.43;8.20;;;;;;;;;;5036172;28;20053;-67
2023/05/18 04:06:15;;;;;;;13.02;9.18;;;;;;;;;;5039912;28;20051;-68
2023/05/18 04:08:40;;;;;;;12.70;8.73;;;;;;;;;;5037405;28;20033;-68
2023/05/18 04:11:06;;;;;;;14.18;8.85;;;;;;;;;;5040075;28;20026;-68
2023/05/18 04:13:31;;;;;;;17.30;9.18;;;;;;;;;;5036254;28;20112;-67
2023/05/18 04:15:57;;;;;;;13.25;8.95;;;;;;;;;;5037992;28;20041;-67
2023/05/18 04:18:23;;;;;;;17.10;9.02;;;;;;;;;;5037750;28;20443;-69
2023/05/18 04:20:48;;;;;;;12.70;8.95;;;;;;;;;;5038490;28;20028;-68
2023/05/18 04:23:14;;;;;;;23.75;9.02;;;;;;;;;;5035385;28;20466;-69
2023/05/18 04:25:40;;;;;;;13.20;8.70;;;;;;;;;;5035193;28;20497;-70
2023/05/18 04:28:05;;;;;;;13.85;9.02;;;;;;;;;;5036757;28;20479;-68
2023/05/18 04:30:31;;;;;;;14.65;8.60;;;;;;;;;;5038718;28;20159;-67
2023/05/18 04:32:57;;;;;;;15.32;8.98;;;;;;;;;;5037122;28;20464;-68
2023/05/18 04:35:24;;;;;;;14.93;9.18;;;;;;;;;;5035345;28;20119;-68
2023/05/18 04:37:49;;;;;;;14.02;9.50;;;;;;;;;;5040902;28;20129;-68
2023/05/18 04:40:15;;;;;;;13.82;8.30;;;;;;;12.93;nan;100610.97;5038967;28;20033;-68
2023/05/18 04:42:44;;;;;;;18.98;10.77;;;;;;;;;;5036110;28;20033;-67
2023/05/18 04:45:11;;;;;;;17.42;9.63;;;;;;;;;;5032323;28;20032;-69
2023/05/18 04:47:37;;;;;;;18.70;10.98;;;;;;;;;;5030986;28;20484;-69
2023/05/18 04:50:03;;;;;;;14.57;9.70;;;;;;;;;;5039486;28;20033;-68
2023/05/18 04:52:29;;;;;;;18.25;10.85;;;;;;;;;;5036636;28;20017;-68
2023/05/18 04:54:55;;;;;;;17.05;10.95;;;;;;;;;;5035079;28;20033;-67
2023/05/18 04:57:20;;;;;;;21.58;12.77;;;;;;;;;;5033277;28;20697;-67
2023/05/18 04:59:46;;;;;;;24.73;12.60;;;;;;;;;;5034804;28;20031;-68
2023/05/18 05:02:11;;;;;;;20.92;12.65;;;;;;;;;;5033871;28;20290;-68
2023/05/18 05:04:38;;;;;;;18.10;11.85;;;;;;;;;;5037625;28;20454;-68
2023/05/18 05:07:03;;;;;;;17.98;10.68;;;;;;;;;;5035895;28;20040;-69
2023/05/18 05:09:29;;;;;;;14.75;9.38;;;;;;;;;;5037172;28;20043;-67
2023/05/18 05:11:55;;;;;;;12.85;8.57;;;;;;;;;;5033565;28;20056;-67
2023/05/18 05:14:20;;;;;;;13.98;8.65;;;;;;;;;;5035390;28;20438;-67
2023/05/18 05:16:45;;;;;;;14.03;9.07;;;;;;;;;;5036586;28;20095;-68
2023/05/18 05:19:10;;;;;;;14.13;8.93;;;;;;;;;;5035553;28;20281;-67
2023/05/18 05:21:36;;;;;;;13.47;8.20;;;;;;;;;;5034553;28;20282;-68
2023/05/18 05:24:03;;;;;;;12.83;8.87;;;;;;;;;;5034158;28;20294;-68
2023/05/18 05:26:29;;;;;;;13.32;8.07;;;;;;;;;;5034388;28;20278;-68
2023/05/18 05:28:54;;;;;;;11.80;8.07;;;;;;;;;;5036540;28;20453;-68
2023/05/18 05:31:19;;;;;;;11.98;8.48;;;;;;;;;;5038139;28;20386;-68
2023/05/18 05:33:44;;;;;;;12.60;8.07;;;;;;;;;;5037459;28;20028;-68
2023/05/18 05:36:10;;;;;;;9.97;7.37;;;;;;;;;;5036306;28;20032;-68
2023/05/18 05:38:35;;;;;;;10.88;7.53;;;;;;;;;;5034747;28;20289;-68
2023/05/18 05:41:01;;;;;;;9.02;6.57;;;;;;;;;;5034420;28;20041;-68
2023/05/18 05:43:26;;;;;;;8.70;6.43;;;;;;;;;;5034932;28;20372;-68
2023/05/18 05:45:51;;;;;;;9.97;6.90;;;;;;;;;;5032650;28;20033;-67
2023/05/18 05:48:16;;;;;;;10.73;7.10;;;;;;;;;;5035320;28;20851;-69
2023/05/18 05:50:42;;;;;;;10.38;7.10;;;;;;;;;;5036467;28;20586;-66
2023/05/18 05:53:07;;;;;;;10.48;6.35;;;;;;;;;;5036284;28;20029;-64
2023/05/18 05:55:36;;;;;;;8.90;6.77;;;;;;;;;;5034416;28;20068;-68
2023/05/18 05:58:04;;;;;;;8.05;5.60;;;;;;;;;;5034523;28;20294;-66
2023/05/18 06:00:29;;;;;;;9.15;6.10;;;;;;;;;;5035630;28;20357;-65
2023/05/18 06:02:54;;;;;;;9.23;6.13;;;;;;;;;;5034032;28;20036;-65
2023/05/18 06:05:20;;;;;;;10.50;5.50;;;;;;;;;;5036194;28;20037;-66
2023/05/18 06:07:45;;;;;;;8.77;5.47;;;;;;;;;;5033392;28;20282;-67
2023/05/18 06:10:10;;;;;;;7.87;5.70;;;;;;;;;;5034550;28;20285;-67
2023/05/18 06:12:35;;;;;;;12.00;6.43;;;;;;;;;;5036101;28;20302;-67
2023/05/18 06:15:01;;;;;;;7.85;5.68;;;;;;;;;;5036025;28;20839;-67
2023/05/18 06:17:26;;;;;;;9.55;5.50;;;;;;;;;;5038037;28;20013;-66
2023/05/18 06:19:52;;;;;;;9.80;5.82;;;;;;;;;;5034547;28;20033;-66
2023/05/18 06:22:18;;;;;;;7.72;6.07;;;;;;;;;;5037454;28;20040;-66
2023/05/18 06:24:43;;;;;;;10.27;5.90;;;;;;;;;;5033857;28;20029;-66
2023/05/18 06:27:08;;;;;;;8.10;6.32;;;;;;;;;;5035603;28;20079;-66
2023/05/18 06:29:34;;;;;;;9.03;5.67;;;;;;;;;;5036327;28;20037;-67
2023/05/18 06:31:59;;;;;;;11.83;5.63;;;;;;;;;;5033861;28;20026;-66
2023/05/18 06:34:24;;;;;;;8.32;5.50;;;;;;;;;;5033340;28;20282;-66
2023/05/18 06:36:50;;;;;;;7.90;4.97;;;;;;;;;;5034635;28;20060;-67
2023/05/18 06:39:15;;;;;;;7.27;4.70;;;;;;;;;;5035394;28;20465;-66
2023/05/18 06:41:40;;;;;;;8.98;5.07;;;;;;;;;;5039092;28;20104;-66
2023/05/18 06:44:06;;;;;;;5.85;4.43;;;;;;;;;;5040497;28;20040;-65
2023/05/18 06:46:31;;;;;;;12.60;5.30;;;;;;;;;;5039522;28;20036;-67
2023/05/18 06:48:56;;;;;;;5.90;5.00;;;;;;;;;;5038160;28;20116;-66
2023/05/18 06:51:21;;;;;;;11.07;5.97;;;;;;;;;;5039354;28;20290;-67
2023/05/18 06:53:47;;;;;;;11.57;5.20;;;;;;;;;;5037234;28;20789;-66
2023/05/18 06:56:12;;;;;;;7.90;5.80;;;;;;;;;;5037867;28;20270;-66
2023/05/18 06:58:40;;;;;;;8.25;5.57;;;;;;;;;;5039662;28;20506;-66
2023/05/18 07:01:05;;;;;;;9.50;6.00;;;;;;;;;;5036944;28;20095;-65
2023/05/18 07:03:31;;;;;;;8.87;5.60;;;;;;;;;;5037817;28;20037;-66
2023/05/18 07:05:57;;;;;;;9.55;5.97;;;;;;;;;;5035530;28;20128;-67
2023/05/18 07:08:23;;;;;;;8.90;5.47;;;;;;;;;;5040275;28;20486;-67
2023/05/18 07:10:49;;;;;;;6.45;5.13;;;;;;;;;;5038583;28;20112;-66
2023/05/18 07:13:14;;;;;;;9.15;5.00;;;;;;;;;;5036595;28;20465;-66
2023/05/18 07:15:39;;;;;;;7.38;5.05;;;;;;;;;;5037392;28;20034;-67
2023/05/18 07:18:05;;;;;;;10.77;5.47;;;;;;;;;;5034582;28;20029;-67
2023/05/18 07:20:30;;;;;;;6.68;4.93;;;;;;;;;;5034778;28;20286;-67
2023/05/18 07:22:55;;;;;;;8.45;5.13;;;;;;;;;;5034274;28;20028;-67
2023/05/18 07:25:21;;;;;;;7.67;5.63;;;;;;;14.14;nan;100696.44;5035807;28;20087;-66
2023/05/18 07:27:47;;;;;;;6.43;4.60;;;;;;;;;;5035377;28;20031;-66
2023/05/18 07:30:12;;;;;;;8.03;5.30;;;;;;;;;;5035719;28;20029;-67
2023/05/18 07:32:37;;;;;;;8.32;5.28;;;;;;;;;;5038146;28;20166;-68
2023/05/18 07:35:03;;;;;;;8.20;5.00;;;;;;;;;;5038497;28;20024;-67
2023/05/18 07:37:29;;;;;;;6.85;4.78;;;;;;;;;;5035380;28;20029;-67
2023/05/18 07:39:54;;;;;;;7.07;4.93;;;;;;;;;;5037167;28;20072;-67
2023/05/18 07:42:19;;;;;;;7.03;4.30;;;;;;;;;;5038779;28;20346;-67
2023/05/18 07:44:44;;;;;;;7.00;4.68;;;;;;;;;;5035951;28;20287;-67
2023/05/18 07:47:10;;;;;;;7.63;4.77;;;;;;;;;;5037457;28;20562;-67
2023/05/18 07:49:37;;;;;;;8.68;4.90;;;;;;;;;;5039805;28;20425;-67
2023/05/18 07:52:03;;;;;;;12.55;5.38;;;;;;;;;;5038416;28;20146;-67
2023/05/18 07:54:28;;;;;;;7.57;4.97;;;;;;;;;;5038678;28;20060;-69
2023/05/18 07:56:53;;;;;;;7.70;4.97;;;;;;;;;;5038055;28;20039;-74
2023/05/18 07:59:18;;;;;;;8.43;5.23;;;;;;;;;;5035977;28;20083;-68
2023/05/18 08:01:44;;;;;;;6.27;5.13;;;;;;;;;;5034864;28;20028;-68
2023/05/18 08:04:09;;;;;;;5.70;4.90;;;;;;;;;;5040172;28;20366;-68
2023/05/18 08:06:35;;;;;;;5.97;4.67;;;;;;;;;;5037343;28;20372;-68
2023/05/18 08:09:00;;;;;;;5.53;4.65;;;;;;;;;;5035228;28;20219;-68
2023/05/18 08:11:25;;;;;;;8.60;5.10;;;;;;;;;;5033295;28;20025;-67
2023/05/18 08:13:51;;;;;;;6.10;4.50;;;;;;;;;;5036653;28;20554;-69
2023/05/18 08:16:17;;;;;;;7.70;5.07;;;;;;;;;;5033651;28;20021;-68
2023/05/18 08:18:42;;;;;;;6.25;4.97;;;;;;;;;;5037839;28;20060;-69
2023/05/18 08:21:08;;;;;;;5.53;4.70;;;;;;;;;;5035266;28;20135;-69
2023/05/18 08:23:34;;;;;;;6.82;4.75;;;;;;;;;;5041262;28;20344;-68
2023/05/18 08:25:59;;;;;;;8.20;4.75;;;;;;;;;;5037020;28;20468;-68
2023/05/18 08:28:25;;;;;;;9.05;4.97;;;;;;;;;;5037628;28;20045;-69
2023/05/18 08:30:51;;;;;;;6.82;5.20;;;;;;;;;;5034965;28;20087;-68
2023/05/18 08:33:16;;;;;;;8.10;5.10;;;;;;;;;;5038730;28;20032;-68
2023/05/18 08:35:41;;;;;;;7.33;4.63;;;;;;;;;;5035605;28;20043;-68
2023/05/18 08:38:07;;;;;;;9.15;5.60;;;;;;;14.95;nan;100789.63;5034830;28;20028;-68
2023/05/18 08:40:38;;;;;;;6.47;4.85;;;;;;;;;;5036490;28;20151;-69
2023/05/18 08:43:10;;;;;;;7.97;5.47;;;;;;;;;;5036712;28;20025;-69
2023/05/18 08:45:41;;;;;;;7.55;4.82;;;;;;;;;;5035033;28;20374;-69
2023/05/18 08:48:07;;;;;;;6.78;5.03;;;;;;;;;;5044150;28;20033;-69
2023/05/18 08:50:34;;;;;;;8.80;5.05;;;;;;;15.17;nan;100778.22;5037166;28;20029;-70
2023/05/18 08:53:02;;;;;;;8.23;5.20;;;;;;;;;;5033027;28;20028;-68
2023/05/18 08:55:28;;;;;;;13.57;6.32;;;;;;;;;;5035940;28;20033;-68
2023/05/18 08:57:55;;;;;;;10.88;5.68;;;;;;;;;;5033904;28;20406;-68
2023/05/18 09:00:20;;;;;;;6.97;5.28;;;;;;;;;;5035949;28;20055;-68
2023/05/18 09:02:47;;;;;;;7.70;5.93;;;;;;;;;;5036070;28;20029;-68
2023/05/18 09:05:13;;;;;;;7.93;5.20;;;;;;;;;;5037221;28;20047;-68
2023/05/18 09:07:40;;;;;;;6.93;5.50;;;;;;;;;;5036019;28;20491;-67
2023/05/18 09:10:06;;;;;;;6.82;5.18;;;;;;;;;;5038354;28;20037;-68
2023/05/18 09:12:32;;;;;;;10.13;5.55;;;;;;;;;;5033982;28;20037;-68
2023/05/18 09:14:58;;;;;;;9.80;5.32;;;;;;;;;;5036808;28;20654;-66
2023/05/18 09:17:23;;;;;;;6.35;5.10;;;;;;;;;;5038914;28;20035;-67
2023/05/18 09:19:49;;;;;;;10.43;5.47;;;;;;;;;;5040312;28;20033;-67
2023/05/18 09:22:14;;;;;;;9.33;6.17;;;;;;;;;;5036063;28;20318;-67
2023/05/18 09:24:40;;;;;;;7.40;5.20;;;;;;;;;;5036843;28;20036;-67
2023/05/18 09:27:05;;;;;;;7.88;5.70;;;;;;;;;;5035487;28;20313;-68
2023/05/18 09:29:30;;;;;;;53.88;19.27;;;;;;;;;;5037923;28;20032;-68
2023/05/18 09:31:56;;;;;;;38.38;16.05;;;;;;;;;;5036866;28;20391;-68
2023/05/18 09:34:23;;;;;;;12.00;7.65;;;;;;;;;;5034485;28;20040;-68
2023/05/18 09:36:51;;;;;;;10.90;6.40;;;;;;;;;;5036183;28;20025;-68
2023/05/18 09:39:17;;;;;;;9.18;5.95;;;;;;;;;;5039601;28;20032;-68
2023/05/18 09:41:42;;;;;;;7.88;6.40;;;;;;;;;;5035079;28;20029;-68
2023/05/18 09:44:11;;;;;;;7.23;5.93;;;;;;;;;;5035311;28;20029;-68
2023/05/18 09:46:39;;;;;;;7.88;5.80;;;;;;;;;;5038553;28;20112;-68
2023/05/18 09:49:05;;;;;;;6.90;5.25;;;;;;;;;;5035862;28;20025;-69
2023/05/18 09:51:33;;;;;;;6.22;5.40;;;;;;;;;;5034478;28;20113;-68
2023/05/18 09:53:59;;;;;;;10.65;5.88;;;;;;;;;;5035650;28;20033;-69
2023/05/18 09:56:25;;;;;;;10.48;6.20;;;;;;;;;;5035873;28;20097;-68
2023/05/18 09:58:50;;;;;;;9.77;6.05;;;;;;;;;;5042350;28;20380;-68
2023/05/18 10:01:16;;;;;;;10.35;5.82;;;;;;;;;;5038171;28;20029;-66
2023/05/18 10:03:44;;;;;;;9.40;6.17;;;;;;;;;;5037878;28;20160;-68
2023/05/18 10:06:12;;;;;;;6.85;5.82;;;;;;;;;;5033685;28;20289;-69
2023/05/18 10:08:37;;;;;;;8.95;5.88;;;;;;;;;;5041138;28;20032;-69
2023/05/18 10:11:03;;;;;;;8.32;5.80;;;;;;;;;;5036279;28;20040;-70
2023/05/18 10:13:30;;;;;;;7.03;5.80;;;;;;;;;;5035265;28;20590;-69
2023/05/18 10:15:57;;;;;;;8.88;5.70;;;;;;;;;;5040152;28;20075;-69
2023/05/18 10:18:24;;;;;;;6.82;5.80;;;;;;;;;;5038731;28;20064;-69
2023/05/18 10:20:50;;;;;;;7.25;5.57;;;;;;;;;;5036727;28;20033;-66
2023/05/18 10:23:16;;;;;;;6.78;5.60;;;;;;;;;;5040426;28;20064;-68
2023/05/18 10:25:43;;;;;;;7.75;5.57;;;;;;;;;;5036988;28;20044;-66
2023/05/18 10:28:09;;;;;;;9.32;5.95;;;;;;;;;;5039504;28;20084;-69
2023/05/18 10:30:35;;;;;;;9.32;5.95;;;;;;;;;;5039292;28;20068;-69
2023/05/18 10:33:01;;;;;;;7.47;5.63;;;;;;;;;;5039016;28;20052;-68
2023/05/18 10:35:27;;;;;;;8.73;5.93;;;;;;;;;;5036614;28;20020;-69
2023/05/18 10:37:53;;;;;;;7.72;5.40;;;;;;;;;;5038299;28;20083;-69
2023/05/18 10:40:20;;;;;;;9.90;6.35;;;;;;;;;;5039457;28;20057;-69
2023/05/18 10:42:45;;;;;;;9.57;5.85;;;;;;;;;;5039862;28;20108;-69
2023/05/18 10:45:11;;;;;;;7.40;5.80;;;;;;;;;;5037786;28;20578;-69
2023/05/18 10:47:41;;;;;;;7.80;6.30;;;;;;;;;;5038790;28;20766;-67
2023/05/18 10:50:07;;;;;;;11.38;6.20;;;;;;;;;;5038490;28;20826;-68
2023/05/18 10:52:33;;;;;;;7.70;5.32;;;;;;;;;;5037714;28;20033;-68
2023/05/18 10:55:03;;;;;;;8.15;5.82;;;;;;;;;;5037821;28;20443;-67
2023/05/18 10:57:33;;;;;;;8.15;5.57;;;;;;;;;;5039831;28;20120;-67
2023/05/18 10:59:58;;;;;;;7.32;5.57;;;;;;;;;;5042394;28;20117;-68
2023/05/18 11:02:24;;;;;;;8.85;5.88;;;;;;;;;;5039903;28;20135;-68
2023/05/18 11:04:51;;;;;;;9.02;5.43;;;;;;;;;;5040052;28;20025;-68
2023/05/18 11:07:16;;;;;;;9.82;5.88;;;;;;;;;;5040403;28;20032;-68
2023/05/18 11:09:43;;;;;;;8.32;6.05;;;;;;;;;;5037578;28;21461;-69
2023/05/18 11:12:12;;;;;;;10.73;5.80;;;;;;;;;;5040406;28;20060;-68
2023/05/18 11:14:45;;;;;;;9.98;6.15;;;;;;;;;;5037018;28;20089;-69
2023/05/18 11:17:13;;;;;;;9.05;5.80;;;;;;;;;;5038502;28;20049;-68
2023/05/18 11:19:39;;;;;;;7.45;5.32;;;;;;;;;;5034851;28;20037;-67
2023/05/18 11:22:13;;;;;;;12.07;5.45;;;;;;;;;;5044651;28;20034;-67
2023/05/18 11:24:41;;;;;;;8.40;5.60;;;;;;;16.04;nan;100811.91;5044783;28;20057;-67
2023/05/18 11:27:12;;;;;;;7.03;4.95;;;;;;;;;;5038343;28;20029;-67
2023/05/18 11:29:43;;;;;;;9.05;5.53;;;;;;;;;;5041110;28;20040;-69
2023/05/18 11:32:21;;;;;;;9.45;5.63;;;;;;;;;;5038348;28;20037;-67
2023/05/18 11:34:49;;;;;;;10.02;7.05;;;;;;;;;;5038687;28;20132;-69
2023/05/18 11:37:15;;;;;;;8.75;5.45;;;;;;;;;;5040209;28;20067;-68
2023/05/18 11:39:41;;;;;;;7.78;5.78;;;;;;;;;;5039210;28;20055;-67
2023/05/18 11:42:06;;;;;;;9.32;5.30;;;;;;;;;;5039250;28;20034;-67
2023/05/18 11:44:32;;;;;;;6.80;5.70;;;;;;;;;;5036938;28;20451;-66
2023/05/18 11:46:57;;;;;;;10.13;5.20;;;;;;;;;;5037475;28;20282;-69
2023/05/18 11:49:42;;;;;;;10.13;5.57;;;;;;;;;;5035817;28;20045;-67
2023/05/18 11:52:15;;;;;;;9.85;5.75;;;;;;;16.09;nan;100763.31;5034774;28;20446;-69
2023/05/18 11:54:51;;;;;;;10.27;5.68;;;;;;;;;;5038685;28;20030;-68
2023/05/18 11:57:17;;;;;;;5.43;4.90;;;;;;;;;;5037039;28;20134;-66
2023/05/18 11:59:44;;;;;;;6.22;5.28;;;;;;;;;;5037956;28;20078;-65
2023/05/18 12:02:10;;;;;;;6.75;4.90;;;;;;;;;;5037528;28;20126;-67
2023/05/18 12:04:49;;;;;;;7.07;5.00;;;;;;;;;;5035538;28;20050;-68
2023/05/18 12:07:16;;;;;;;10.90;5.65;;;;;;;;;;5041786;28;20041;-68
2023/05/18 12:09:43;;;;;;;8.60;5.78;;;;;;;;;;5036592;28;20024;-67
2023/05/18 12:12:10;;;;;;;6.38;5.30;;;;;;;;;;5037273;28;20024;-67
2023/05/18 12:14:36;;;;;;;10.45;5.43;;;;;;;;;;5041996;28;20563;-67
2023/05/18 12:17:01;;;;;;;6.60;5.22;;;;;;;;;;5035320;28;20037;-67
2023/05/18 12:19:35;;;;;;;7.05;5.38;;;;;;;;;;5037055;28;20039;-68
2023/05/18 12:22:01;;;;;;;5.45;4.90;;;;;;;;;;5035998;28;20025;-69
2023/05/18 12:24:27;;;;;;;6.15;5.00;;;;;;;;;;5037713;28;20026;-69
2023/05/18 12:26:52;;;;;;;10.25;6.25;;;;;;;;;;5036291;28;20036;-69
2023/05/18 12:29:20;;;;;;;8.90;5.47;;;;;;;;;;5038367;28;20029;-75
2023/05/18 12:31:46;;;;;;;6.88;5.00;;;;;;;;;;5035687;28;20655;-77
2023/05/18 12:34:12;;;;;;;7.65;5.10;;;;;;;;;;5038952;28;20025;-70
2023/05/18 12:36:55;;;;;;;6.15;4.95;;;;;;;;;;5035856;28;20030;-70
2023/05/18 12:39:21;;;;;;;6.07;5.10;;;;;;;;;;5041571;28;20029;-71
2023/05/18 12:41:46;;;;;;;9.82;5.70;;;;;;;;;;5036117;28;20092;-69
2023/05/18 12:44:12;;;;;;;9.57;5.53;;;;;;;;;;5039532;28;20393;-69
2023/05/18 12:46:37;;;;;;;6.35;4.93;;;;;;;;;;5037350;28;20029;-69
2023/05/18 12:49:04;;;;;;;7.97;5.10;;;;;;;;;;5035574;28;20422;-70
2023/05/18 12:51:38;;;;;;;6.88;4.95;;;;;;;;;;5035991;28;20110;-69
2023/05/18 12:54:06;;;;;;;6.47;5.15;;;;;;;;;;5037827;28;20409;-72
2023/05/18 12:56:50;;;;;;;6.57;5.15;;;;;;;;;;5033735;28;20116;-68
2023/05/18 12:59:16;;;;;;;5.05;4.55;;;;;;;;;;5032548;28;20059;-76
2023/05/18 13:01:42;;;;;;;5.80;4.65;;;;;;;;;;5035250;28;20211;-76
2023/05/18 13:04:09;;;;;;;9.23;5.05;;;;;;;;;;5036680;28;20546;-70
2023/05/18 13:06:36;;;;;;;8.32;5.07;;;;;;;;;;5035470;28;20491;-70
2023/05/18 13:09:01;;;;;;;5.82;4.45;;;;;;;;;;5035196;28;20519;-69
2023/05/18 13:11:27;;;;;;;6.87;4.67;;;;;;;;;;5034877;28;20047;-70
2023/05/18 13:14:03;;;;;;;6.70;5.30;;;;;;;;;;5034019;28;20060;-69
2023/05/18 13:16:28;;;;;;;9.40;5.32;;;;;;;;;;5032337;28;20107;-68
2023/05/18 13:18:54;;;;;;;7.85;5.32;;;;;;;;;;5035332;28;20079;-67
2023/05/18 13:21:20;;;;;;;8.05;5.43;;;;;;;;;;5035758;28;20025;-69
2023/05/18 13:23:45;;;;;;;8.00;5.87;;;;;;;;;;5037012;28;20041;-67
2023/05/18 13:26:10;;;;;;;8.27;5.10;;;;;;;;;;5037149;28;20301;-67
2023/05/18 13:28:36;;;;;;;8.90;5.18;;;;;;;;;;5032410;28;20083;-68
2023/05/18 13:31:01;;;;;;;8.10;5.30;;;;;;;;;;5032981;28;20048;-68
2023/05/18 13:33:27;;;;;;;6.78;5.60;;;;;;;;;;5035703;28;20029;-67
2023/05/18 13:35:52;;;;;;;8.98;5.20;;;;;;;;;;5033921;28;20114;-67
2023/05/18 13:38:17;;;;;;;8.02;5.35;;;;;;;;;;5035844;28;20028;-68
2023/05/18 13:40:42;;;;;;;6.95;5.72;;;;;;;;;;5035067;28;20036;-68
2023/05/18 13:43:08;;;;;;;8.53;5.40;;;;;;;;;;5034659;28;20040;-69
2023/05/18 13:45:36;;;;;;;9.95;6.13;;;;;;;;;;5034040;28;20513;-68
2023/05/18 13:48:05;;;;;;;9.17;5.63;;;;;;;;;;5035328;28;20033;-66
2023/05/18 13:50:31;;;;;;;11.45;6.55;;;;;;;;;;5033989;28;20037;-69
2023/05/18 13:52:56;;;;;;;8.18;5.72;;;;;;;;;;5036643;28;20025;-68
2023/05/18 13:55:22;;;;;;;8.90;5.83;;;;;;;16.71;nan;100794.66;5039132;28;20032;-69
2023/05/18 13:57:47;;;;;;;8.65;6.13;;;;;;;;;;5035975;28;20378;-68
2023/05/18 14:00:13;;;;;;;10.27;6.28;;;;;;;;;;5036690;28;20040;-68
2023/05/18 14:02:39;;;;;;;8.52;5.32;;;;;;;;;;5037180;28;20086;-66
2023/05/18 14:05:07;;;;;;;6.80;5.60;;;;;;;;;;5031880;28;20099;-67
2023/05/18 14:07:32;;;;;;;10.02;6.22;;;;;;;;;;5030188;28;20492;-72
2023/05/18 14:09:57;;;;;;;9.15;6.45;;;;;;;;;;5035317;28;20030;-68
2023/05/18 14:12:23;;;;;;;9.90;6.40;;;;;;;16.80;nan;100817.06;5037308;28;20021;-68
2023/05/18 14:14:48;;;;;;;10.95;6.03;;;;;;;;;;5039263;28;20033;-68
2023/05/18 14:17:13;;;;;;;7.03;5.50;;;;;;;;;;5034661;28;20036;-67
2023/05/18 14:19:39;;;;;;;9.07;6.10;;;;;;;;;;5034889;28;20312;-66
2023/05/18 14:22:04;;;;;;;10.32;5.78;;;;;;;;;;5032538;28;20025;-67
2023/05/18 14:24:29;;;;;;;5.63;5.03;;;;;;;;;;5037286;28;20033;-67